createdAt,value
2019-06-10T00:00:16.463Z,1016.57
2019-06-10T00:01:08.624Z,1016.57
2019-06-10T00:02:05.821Z,1016.57
2019-06-10T00:03:06.003Z,1016.56
2019-06-10T00:04:12.122Z,1016.56
2019-06-10T00:05:05.976Z,1016.56
2019-06-10T00:06:05.672Z,1016.56
2019-06-10T00:07:05.513Z,1016.44
2019-06-10T00:08:05.768Z,1016.44
2019-06-10T00:09:08.086Z,1016.44
2019-06-10T00:10:06.196Z,1016.44
2019-06-10T00:11:07.774Z,1016.37
2019-06-10T00:12:06.412Z,1016.37
2019-06-10T00:13:05.380Z,1016.37
2019-06-10T00:14:06.066Z,1016.37
2019-06-10T00:15:06.119Z,1016.32
2019-06-10T00:16:06.407Z,1016.32
2019-06-10T00:17:06.345Z,1016.32
2019-06-10T00:18:41.128Z,1016.32
2019-06-10T00:19:09.401Z,1016.31
2019-06-10T00:20:07.015Z,1016.31
2019-06-10T00:21:05.524Z,1016.31
2019-06-10T00:22:06.493Z,1016.31
2019-06-10T00:23:05.684Z,1016.39
2019-06-10T00:24:05.800Z,1016.39
2019-06-10T00:25:07.042Z,1016.39
2019-06-10T00:26:09.020Z,1016.39
2019-06-10T00:27:05.603Z,1016.3
2019-06-10T00:28:05.749Z,1016.3
2019-06-10T00:29:06.329Z,1016.3
2019-06-10T00:30:07.562Z,1016.3
2019-06-10T00:31:05.446Z,1016.24
2019-06-10T00:32:08.530Z,1016.24
2019-06-10T00:33:06.498Z,1016.24
2019-06-10T00:34:06.622Z,1016.24
2019-06-10T00:35:07.368Z,1016.2
2019-06-10T00:36:09.625Z,1016.2
2019-06-10T00:37:09.201Z,1016.2
2019-06-10T00:38:09.055Z,1016.2
2019-06-10T00:39:06.549Z,1016.1
2019-06-10T00:40:07.664Z,1016.1
2019-06-10T00:41:07.674Z,1016.1
2019-06-10T00:42:09.320Z,1016.1
2019-06-10T00:43:05.428Z,1015.96
2019-06-10T00:44:05.655Z,1015.96
2019-06-10T00:45:07.570Z,1015.96
2019-06-10T00:46:07.392Z,1015.96
2019-06-10T00:47:07.963Z,1016.02
2019-06-10T00:48:26.274Z,1016.02
2019-06-10T00:49:08.124Z,1016.02
2019-06-10T00:50:10.303Z,1016.02
2019-06-10T00:51:06.078Z,1015.91
2019-06-10T00:52:05.902Z,1015.91
2019-06-10T00:53:05.971Z,1015.91
2019-06-10T00:54:06.969Z,1015.91
2019-06-10T00:55:06.484Z,1015.9
2019-06-10T00:56:06.692Z,1015.9
2019-06-10T00:57:05.507Z,1015.9
2019-06-10T00:58:05.696Z,1015.9
2019-06-10T00:59:05.743Z,1015.9
2019-06-10T01:00:25.827Z,1015.9
2019-06-10T01:01:04.314Z,1015.9
2019-06-10T01:02:06.348Z,1015.75
2019-06-10T01:03:03.917Z,1015.75
2019-06-10T01:04:06.542Z,1015.75
2019-06-10T01:05:03.365Z,1015.75
2019-06-10T01:06:04.722Z,1015.85
2019-06-10T01:07:02.797Z,1015.85
2019-06-10T01:08:04.514Z,1015.85
2019-06-10T01:09:02.887Z,1015.85
2019-06-10T01:10:03.131Z,1015.71
2019-06-10T01:11:19.740Z,1015.71
2019-06-10T01:12:03.130Z,1015.71
2019-06-10T01:13:04.985Z,1015.71
2019-06-10T01:14:03.348Z,1015.73
2019-06-10T01:15:03.530Z,1015.73
2019-06-10T01:16:03.777Z,1015.73
2019-06-10T01:17:01.694Z,1015.73
2019-06-10T01:18:02.058Z,1015.61
2019-06-10T01:19:02.139Z,1015.61
2019-06-10T01:20:03.662Z,1015.61
2019-06-10T01:21:02.354Z,1015.61
2019-06-10T01:22:01.939Z,1015.59
2019-06-10T01:23:02.082Z,1015.59
2019-06-10T01:24:02.323Z,1015.59
2019-06-10T01:25:02.655Z,1015.59
2019-06-10T01:26:01.978Z,1015.48
2019-06-10T01:27:01.930Z,1015.48
2019-06-10T01:28:02.273Z,1015.48
2019-06-10T01:29:02.381Z,1015.48
2019-06-10T01:30:18.706Z,1015.43
2019-06-10T01:31:01.960Z,1015.43
2019-06-10T01:32:02.201Z,1015.43
2019-06-10T01:33:02.446Z,1015.43
2019-06-10T01:34:02.605Z,1015.45
2019-06-10T01:35:01.906Z,1015.45
2019-06-10T01:36:02.258Z,1015.45
2019-06-10T01:37:02.391Z,1015.45
2019-06-10T01:38:01.700Z,1015.31
2019-06-10T01:39:01.920Z,1015.31
2019-06-10T01:40:02.209Z,1015.31
2019-06-10T01:41:02.446Z,1015.31
2019-06-10T01:42:02.677Z,1015.28
2019-06-10T01:43:01.827Z,1015.28
2019-06-10T01:44:02.101Z,1015.28
2019-06-10T01:45:02.304Z,1015.28
2019-06-10T01:46:02.508Z,1015.27
2019-06-10T01:47:01.750Z,1015.27
2019-06-10T01:48:02.003Z,1015.27
2019-06-10T01:49:02.170Z,1015.27
2019-06-10T01:50:02.404Z,1015.3
2019-06-10T01:51:02.330Z,1015.3
2019-06-10T01:52:02.088Z,1015.3
2019-06-10T01:53:02.019Z,1015.3
2019-06-10T01:54:02.282Z,1015.22
2019-06-10T01:55:02.581Z,1015.22
2019-06-10T01:56:01.758Z,1015.22
2019-06-10T01:57:01.953Z,1015.22
2019-06-10T01:58:02.214Z,1015.17
2019-06-10T01:59:02.362Z,1015.17
2019-06-10T02:00:19.122Z,1015.17
2019-06-10T02:01:01.967Z,1015.17
2019-06-10T02:02:02.195Z,1015.1
2019-06-10T02:03:04.039Z,1015.1
2019-06-10T02:04:01.657Z,1015.1
2019-06-10T02:05:02.201Z,1015.1
2019-06-10T02:06:02.130Z,1015.12
2019-06-10T02:07:02.358Z,1015.12
2019-06-10T02:08:02.656Z,1015.12
2019-06-10T02:09:01.762Z,1015.12
2019-06-10T02:10:02.135Z,1015.02
2019-06-10T02:11:02.320Z,1015.02
2019-06-10T02:12:02.653Z,1015.02
2019-06-10T02:13:01.719Z,1015.02
2019-06-10T02:14:01.949Z,1015.03
2019-06-10T02:15:02.261Z,1015.03
2019-06-10T02:16:02.720Z,1015.03
2019-06-10T02:17:01.704Z,1015.03
2019-06-10T02:18:01.924Z,1014.9
2019-06-10T02:19:04.713Z,1014.9
2019-06-10T02:20:02.480Z,1014.9
2019-06-10T02:21:01.951Z,1014.9
2019-06-10T02:22:01.882Z,1014.78
2019-06-10T02:23:02.323Z,1014.78
2019-06-10T02:24:02.261Z,1014.78
2019-06-10T02:25:02.503Z,1014.78
2019-06-10T02:26:02.412Z,1014.86
2019-06-10T02:27:01.952Z,1014.86
2019-06-10T02:28:02.163Z,1014.86
2019-06-10T02:29:02.364Z,1014.86
2019-06-10T02:30:22.891Z,1014.64
2019-06-10T02:31:04.129Z,1014.64
2019-06-10T02:32:05.533Z,1014.64
2019-06-10T02:33:02.984Z,1014.64
2019-06-10T02:34:03.139Z,1014.66
2019-06-10T02:35:22.974Z,1014.66
2019-06-10T02:36:05.131Z,1014.66
2019-06-10T02:37:05.337Z,1014.66
2019-06-10T02:38:03.970Z,1014.52
2019-06-10T02:39:05.137Z,1014.52
2019-06-10T02:40:05.046Z,1014.52
2019-06-10T02:41:05.103Z,1014.63
2019-06-10T02:42:05.130Z,1014.63
2019-06-10T02:43:03.940Z,1014.63
2019-06-10T02:44:04.889Z,1014.63
2019-06-10T02:45:04.394Z,1014.63
2019-06-10T02:46:05.291Z,1014.63
2019-06-10T02:47:03.857Z,1014.63
2019-06-10T02:48:04.715Z,1014.63
2019-06-10T02:50:09.350Z,1014.6
2019-06-10T02:51:04.568Z,1014.6
2019-06-10T02:52:03.945Z,1014.6
2019-06-10T02:53:04.427Z,1014.52
2019-06-10T02:54:05.376Z,1014.52
2019-06-10T02:55:04.833Z,1014.52
2019-06-10T02:56:04.689Z,1014.52
2019-06-10T02:57:04.913Z,1014.44
2019-06-10T02:58:04.403Z,1014.44
2019-06-10T02:59:03.868Z,1014.44
2019-06-10T03:00:23.394Z,1014.44
2019-06-10T03:01:04.845Z,1014.46
2019-06-10T03:02:03.472Z,1014.46
2019-06-10T03:03:04.302Z,1014.46
2019-06-10T03:04:05.099Z,1014.46
2019-06-10T03:05:05.187Z,1014.32
2019-06-10T03:06:09.189Z,1014.32
2019-06-10T03:07:03.772Z,1014.32
2019-06-10T03:08:04.389Z,1014.32
2019-06-10T03:09:04.218Z,1014.31
2019-06-10T03:10:05.224Z,1014.31
2019-06-10T03:11:04.327Z,1014.31
2019-06-10T03:12:05.293Z,1014.31
2019-06-10T03:13:02.852Z,1014.13
2019-06-10T03:14:03.018Z,1014.13
2019-06-10T03:15:02.584Z,1014.13
2019-06-10T03:16:03.156Z,1014.13
2019-06-10T03:17:03.508Z,1014.18
2019-06-10T03:18:02.717Z,1014.18
2019-06-10T03:19:03.389Z,1014.18
2019-06-10T03:20:02.686Z,1014.18
2019-06-10T03:21:03.062Z,1014.21
2019-06-10T03:22:03.110Z,1014.21
2019-06-10T03:23:03.370Z,1014.21
2019-06-10T03:24:03.131Z,1014.21
2019-06-10T03:25:03.266Z,1014.07
2019-06-10T03:26:04.692Z,1014.07
2019-06-10T03:27:03.084Z,1014.07
2019-06-10T03:28:03.424Z,1014.07
2019-06-10T03:29:03.158Z,1014.26
2019-06-10T03:30:20.126Z,1014.26
2019-06-10T03:31:06.628Z,1014.26
2019-06-10T03:32:05.945Z,1014.26
2019-06-10T03:33:05.551Z,1014.25
2019-06-10T03:34:05.801Z,1014.25
2019-06-10T03:35:06.045Z,1014.25
2019-06-10T03:36:03.794Z,1014.25
2019-06-10T03:37:02.832Z,1014.07
2019-06-10T03:38:03.393Z,1014.07
2019-06-10T03:39:02.985Z,1014.07
2019-06-10T03:40:02.873Z,1014.07
2019-06-10T03:41:03.717Z,1014.19
2019-06-10T03:42:02.730Z,1014.19
2019-06-10T03:43:02.954Z,1014.19
2019-06-10T03:44:03.017Z,1014.19
2019-06-10T03:45:03.748Z,1014.18
2019-06-10T03:46:03.674Z,1014.18
2019-06-10T03:47:03.205Z,1014.18
2019-06-10T03:48:04.118Z,1014.18
2019-06-10T03:49:03.553Z,1014.03
2019-06-10T03:50:03.716Z,1014.03
2019-06-10T03:51:03.843Z,1014.03
2019-06-10T03:52:02.829Z,1014.03
2019-06-10T03:53:04.791Z,1014.08
2019-06-10T03:54:02.888Z,1014.08
2019-06-10T03:55:03.530Z,1014.08
2019-06-10T03:56:02.834Z,1014.08
2019-06-10T03:57:03.261Z,1013.89
2019-06-10T03:58:02.626Z,1013.89
2019-06-10T03:59:03.335Z,1013.89
2019-06-10T04:00:14.271Z,1013.89
2019-06-10T04:01:03.680Z,1014.04
2019-06-10T04:02:02.711Z,1014.04
2019-06-10T04:03:03.134Z,1014.04
2019-06-10T04:04:02.826Z,1014.04
2019-06-10T04:05:03.187Z,1013.92
2019-06-10T04:06:03.054Z,1013.92
2019-06-10T04:07:04.352Z,1013.92
2019-06-10T04:08:02.527Z,1013.92
2019-06-10T04:09:03.286Z,1013.87
2019-06-10T04:10:02.674Z,1013.87
2019-06-10T04:11:03.406Z,1013.87
2019-06-10T04:12:02.631Z,1013.87
2019-06-10T04:13:02.999Z,1013.87
2019-06-10T04:14:02.800Z,1013.87
2019-06-10T04:15:03.510Z,1013.87
2019-06-10T04:16:03.043Z,1013.87
2019-06-10T04:17:03.092Z,1013.83
2019-06-10T04:18:04.359Z,1013.83
2019-06-10T04:19:03.033Z,1013.83
2019-06-10T04:20:15.463Z,1013.83
2019-06-10T04:21:02.854Z,1013.93
2019-06-10T04:22:03.015Z,1013.93
2019-06-10T04:23:03.113Z,1013.93
2019-06-10T04:24:02.753Z,1013.93
2019-06-10T04:25:03.484Z,1013.9
2019-06-10T04:26:02.841Z,1013.9
2019-06-10T04:27:03.174Z,1013.9
2019-06-10T04:28:03.636Z,1013.9
2019-06-10T04:29:02.953Z,1013.9
2019-06-10T04:30:03.774Z,1013.9
2019-06-10T04:31:03.116Z,1013.9
2019-06-10T04:32:03.532Z,1013.83
2019-06-10T04:33:02.685Z,1013.83
2019-06-10T04:34:03.658Z,1013.83
2019-06-10T04:35:02.759Z,1013.83
2019-06-10T04:36:03.453Z,1013.81
2019-06-10T04:37:03.471Z,1013.81
2019-06-10T04:38:02.897Z,1013.81
2019-06-10T04:39:03.661Z,1013.81
2019-06-10T04:40:06.565Z,1013.81
2019-06-10T04:41:03.908Z,1013.81
2019-06-10T04:42:02.758Z,1013.81
2019-06-10T04:43:03.346Z,1013.81
2019-06-10T04:44:03.142Z,1013.68
2019-06-10T04:45:03.595Z,1013.68
2019-06-10T04:46:02.939Z,1013.68
2019-06-10T04:47:03.183Z,1013.68
2019-06-10T04:48:03.426Z,1013.71
2019-06-10T04:49:03.246Z,1013.71
2019-06-10T04:50:03.549Z,1013.71
2019-06-10T04:51:03.338Z,1013.71
2019-06-10T04:52:03.604Z,1013.74
2019-06-10T04:53:02.618Z,1013.74
2019-06-10T04:54:03.529Z,1013.74
2019-06-10T04:55:03.019Z,1013.74
2019-06-10T04:56:03.485Z,1013.68
2019-06-10T04:57:02.624Z,1013.68
2019-06-10T04:58:02.921Z,1013.68
2019-06-10T04:59:03.609Z,1013.68
2019-06-10T05:00:14.841Z,1013.58
2019-06-10T05:01:03.631Z,1013.58
2019-06-10T05:02:05.805Z,1013.58
2019-06-10T05:03:03.295Z,1013.58
2019-06-10T05:04:03.616Z,1013.66
2019-06-10T05:05:03.426Z,1013.66
2019-06-10T05:06:03.819Z,1013.66
2019-06-10T05:07:02.520Z,1013.66
2019-06-10T05:08:03.098Z,1013.71
2019-06-10T05:09:04.564Z,1013.71
2019-06-10T05:10:03.645Z,1013.71
2019-06-10T05:11:04.203Z,1013.71
2019-06-10T05:12:03.293Z,1013.74
2019-06-10T05:13:03.521Z,1013.74
2019-06-10T05:14:03.239Z,1013.74
2019-06-10T05:15:04.001Z,1013.74
2019-06-10T05:16:04.154Z,1013.66
2019-06-10T05:17:02.577Z,1013.66
2019-06-10T05:18:03.715Z,1013.66
2019-06-10T05:19:04.282Z,1013.66
2019-06-10T05:20:02.952Z,1013.84
2019-06-10T05:21:03.410Z,1013.84
2019-06-10T05:22:03.549Z,1013.84
2019-06-10T05:23:02.643Z,1013.84
2019-06-10T05:24:03.318Z,1013.71
2019-06-10T05:25:02.960Z,1013.71
2019-06-10T05:26:03.392Z,1013.71
2019-06-10T05:27:02.578Z,1013.71
2019-06-10T05:28:03.254Z,1013.75
2019-06-10T05:29:03.565Z,1013.75
2019-06-10T05:30:02.785Z,1013.75
2019-06-10T05:31:03.377Z,1013.75
2019-06-10T05:32:02.913Z,1013.76
2019-06-10T05:33:03.336Z,1013.76
2019-06-10T05:34:05.748Z,1013.76
2019-06-10T05:35:03.924Z,1013.76
2019-06-10T05:36:03.122Z,1013.71
2019-06-10T05:37:03.095Z,1013.71
2019-06-10T05:38:02.815Z,1013.71
2019-06-10T05:39:03.132Z,1013.71
2019-06-10T05:40:02.580Z,1013.75
2019-06-10T05:41:03.391Z,1013.75
2019-06-10T05:42:03.738Z,1013.75
2019-06-10T05:43:02.885Z,1013.75
2019-06-10T05:44:03.059Z,1013.8
2019-06-10T05:45:03.524Z,1013.8
2019-06-10T05:46:03.526Z,1013.8
2019-06-10T05:47:04.295Z,1013.8
2019-06-10T05:48:03.289Z,1013.85
2019-06-10T05:49:06.151Z,1013.85
2019-06-10T05:50:03.696Z,1013.85
2019-06-10T05:51:07.106Z,1013.85
2019-06-10T05:52:02.335Z,1013.74
2019-06-10T05:53:02.862Z,1013.74
2019-06-10T05:54:02.669Z,1013.74
2019-06-10T05:55:03.251Z,1013.74
2019-06-10T05:56:02.688Z,1013.71
2019-06-10T05:57:02.978Z,1013.71
2019-06-10T05:58:03.058Z,1013.71
2019-06-10T05:59:04.668Z,1013.71
2019-06-10T06:00:15.048Z,1013.72
2019-06-10T06:01:03.202Z,1013.72
2019-06-10T06:02:02.719Z,1013.72
2019-06-10T06:03:03.165Z,1013.72
2019-06-10T06:04:03.656Z,1013.62
2019-06-10T06:05:02.893Z,1013.62
2019-06-10T06:06:03.652Z,1013.62
2019-06-10T06:07:02.712Z,1013.62
2019-06-10T06:08:08.867Z,1013.66
2019-06-10T06:09:02.578Z,1013.66
2019-06-10T06:10:02.832Z,1013.66
2019-06-10T06:11:03.675Z,1013.64
2019-06-10T06:12:02.883Z,1013.64
2019-06-10T06:13:03.447Z,1013.64
2019-06-10T06:14:03.161Z,1013.64
2019-06-10T06:15:02.758Z,1013.76
2019-06-10T06:16:03.835Z,1013.76
2019-06-10T06:17:02.647Z,1013.76
2019-06-10T06:18:13.571Z,1013.76
2019-06-10T06:19:03.629Z,1013.64
2019-06-10T06:20:03.151Z,1013.64
2019-06-10T06:21:31.329Z,1013.64
2019-06-10T06:22:02.613Z,1013.64
2019-06-10T06:23:03.160Z,1013.59
2019-06-10T06:24:04.461Z,1013.59
2019-06-10T06:25:04.259Z,1013.59
2019-06-10T06:26:04.519Z,1013.59
2019-06-10T06:27:02.866Z,1013.68
2019-06-10T06:28:03.335Z,1013.68
2019-06-10T06:29:02.657Z,1013.68
2019-06-10T06:30:16.248Z,1013.68
2019-06-10T06:31:03.830Z,1013.64
2019-06-10T06:32:03.113Z,1013.64
2019-06-10T06:33:03.442Z,1013.64
2019-06-10T06:34:03.549Z,1013.64
2019-06-10T06:35:02.475Z,1013.53
2019-06-10T06:36:04.001Z,1013.53
2019-06-10T06:37:02.539Z,1013.53
2019-06-10T06:38:02.964Z,1013.53
2019-06-10T06:39:02.748Z,1013.57
2019-06-10T06:40:03.184Z,1013.57
2019-06-10T06:41:03.717Z,1013.57
2019-06-10T06:42:02.600Z,1013.57
2019-06-10T06:43:03.059Z,1013.58
2019-06-10T06:44:02.712Z,1013.58
2019-06-10T06:45:03.434Z,1013.58
2019-06-10T06:46:03.085Z,1013.58
2019-06-10T06:47:03.119Z,1013.39
2019-06-10T06:48:03.360Z,1013.39
2019-06-10T06:49:02.473Z,1013.39
2019-06-10T06:50:03.060Z,1013.39
2019-06-10T06:51:08.923Z,1013.33
2019-06-10T06:52:03.388Z,1013.33
2019-06-10T06:53:32.261Z,1013.33
2019-06-10T06:54:03.685Z,1013.33
2019-06-10T06:55:02.857Z,1013.37
2019-06-10T06:56:04.181Z,1013.37
2019-06-10T06:57:03.983Z,1013.37
2019-06-10T06:58:03.792Z,1013.37
2019-06-10T06:59:02.962Z,1013.3
2019-06-10T07:01:00.705Z,1013.3
2019-06-10T07:01:14.197Z,1013.3
2019-06-10T07:02:03.138Z,1013.3
2019-06-10T07:03:03.445Z,1013.33
2019-06-10T07:04:03.095Z,1013.33
2019-06-10T07:05:03.490Z,1013.33
2019-06-10T07:06:03.113Z,1013.33
2019-06-10T07:07:03.086Z,1013.27
2019-06-10T07:08:02.814Z,1013.27
2019-06-10T07:09:08.466Z,1013.27
2019-06-10T07:10:03.727Z,1013.27
2019-06-10T07:11:03.186Z,1013.27
2019-06-10T07:12:02.941Z,1013.27
2019-06-10T07:13:03.179Z,1013.27
2019-06-10T07:14:04.174Z,1013.27
2019-06-10T07:15:04.649Z,1013.25
2019-06-10T07:16:03.485Z,1013.25
2019-06-10T07:17:04.434Z,1013.25
2019-06-10T07:18:02.682Z,1013.25
2019-06-10T07:19:02.990Z,1013.35
2019-06-10T07:20:03.586Z,1013.35
2019-06-10T07:21:03.259Z,1013.35
2019-06-10T07:22:15.612Z,1013.35
2019-06-10T07:23:03.044Z,1013.27
2019-06-10T07:24:03.622Z,1013.27
2019-06-10T07:25:06.911Z,1013.27
2019-06-10T07:26:02.830Z,1013.27
2019-06-10T07:27:03.107Z,1013.29
2019-06-10T07:28:02.393Z,1013.29
2019-06-10T07:29:03.321Z,1013.29
2019-06-10T07:30:14.996Z,1013.29
2019-06-10T07:31:19.539Z,1013.14
2019-06-10T07:32:03.708Z,1013.14
2019-06-10T07:33:03.313Z,1013.14
2019-06-10T07:34:03.019Z,1013.14
2019-06-10T07:35:03.222Z,1013.19
2019-06-10T07:36:03.700Z,1013.19
2019-06-10T07:37:02.921Z,1013.19
2019-06-10T07:38:03.782Z,1013.19
2019-06-10T07:39:03.937Z,1013.03
2019-06-10T07:40:03.426Z,1013.03
2019-06-10T07:41:03.122Z,1013.03
2019-06-10T07:42:03.502Z,1013.03
2019-06-10T07:43:02.688Z,1013.16
2019-06-10T07:44:03.460Z,1013.16
2019-06-10T07:45:02.806Z,1013.16
2019-06-10T07:46:03.873Z,1013.16
2019-06-10T07:47:02.979Z,1012.98
2019-06-10T07:48:03.209Z,1012.98
2019-06-10T07:49:03.730Z,1012.98
2019-06-10T07:50:03.390Z,1012.98
2019-06-10T07:51:03.263Z,1013.02
2019-06-10T07:52:19.903Z,1013.02
2019-06-10T07:53:02.631Z,1013.02
2019-06-10T07:54:03.591Z,1013.04
2019-06-10T07:55:02.893Z,1013.04
2019-06-10T07:56:03.795Z,1013.04
2019-06-10T07:57:02.762Z,1013.04
2019-06-10T07:58:02.895Z,1013.02
2019-06-10T07:59:04.363Z,1013.02
2019-06-10T08:00:03.498Z,1013.02
2019-06-10T08:01:03.084Z,1013.02
2019-06-10T08:02:03.374Z,1012.98
2019-06-10T08:03:02.791Z,1012.98
2019-06-10T08:04:03.469Z,1012.98
2019-06-10T08:05:04.095Z,1012.98
2019-06-10T08:06:03.817Z,1013.07
2019-06-10T08:07:03.746Z,1013.07
2019-06-10T08:08:03.132Z,1013.07
2019-06-10T08:09:02.611Z,1013.07
2019-06-10T08:10:03.286Z,1013.06
2019-06-10T08:11:03.912Z,1013.06
2019-06-10T08:12:06.259Z,1013.06
2019-06-10T08:13:03.290Z,1013.06
2019-06-10T08:14:05.061Z,1012.98
2019-06-10T08:15:03.193Z,1012.98
2019-06-10T08:16:03.299Z,1012.98
2019-06-10T08:17:03.506Z,1012.98
2019-06-10T08:18:04.733Z,1012.91
2019-06-10T08:19:34.908Z,1012.91
2019-06-10T08:20:02.905Z,1012.91
2019-06-10T08:21:03.648Z,1012.91
2019-06-10T08:22:03.356Z,1012.94
2019-06-10T08:23:02.545Z,1012.94
2019-06-10T08:24:03.888Z,1012.94
2019-06-10T08:25:05.363Z,1012.94
2019-06-10T08:26:03.930Z,1012.86
2019-06-10T08:27:03.044Z,1012.86
2019-06-10T08:28:03.412Z,1012.86
2019-06-10T08:29:04.827Z,1012.86
2019-06-10T08:30:27.257Z,1012.74
2019-06-10T08:31:04.172Z,1012.74
2019-06-10T08:32:03.773Z,1012.74
2019-06-10T08:33:03.789Z,1012.74
2019-06-10T08:34:03.527Z,1012.75
2019-06-10T08:35:03.148Z,1012.75
2019-06-10T08:36:04.521Z,1012.75
2019-06-10T08:37:04.888Z,1012.75
2019-06-10T08:38:02.808Z,1012.66
2019-06-10T08:39:03.693Z,1012.66
2019-06-10T08:40:04.170Z,1012.66
2019-06-10T08:41:03.696Z,1012.66
2019-06-10T08:42:03.598Z,1012.79
2019-06-10T08:43:04.689Z,1012.79
2019-06-10T08:44:02.644Z,1012.79
2019-06-10T08:45:03.890Z,1012.79
2019-06-10T08:46:03.043Z,1012.72
2019-06-10T08:47:03.398Z,1012.72
2019-06-10T08:48:03.082Z,1012.72
2019-06-10T08:49:03.566Z,1012.72
2019-06-10T08:50:03.326Z,1012.61
2019-06-10T08:51:04.427Z,1012.61
2019-06-10T08:52:03.871Z,1012.61
2019-06-10T08:53:18.101Z,1012.61
2019-06-10T08:54:02.779Z,1012.7
2019-06-10T08:55:03.832Z,1012.7
2019-06-10T08:56:03.399Z,1012.7
2019-06-10T08:57:07.025Z,1012.7
2019-06-10T08:58:03.226Z,1012.57
2019-06-10T08:59:03.665Z,1012.57
2019-06-10T09:00:18.620Z,1012.57
2019-06-10T09:01:02.694Z,1012.57
2019-06-10T09:02:03.408Z,1012.42
2019-06-10T09:03:04.588Z,1012.42
2019-06-10T09:04:03.644Z,1012.42
2019-06-10T09:05:04.117Z,1012.42
2019-06-10T09:06:03.661Z,1012.43
2019-06-10T09:07:04.696Z,1012.43
2019-06-10T09:08:03.620Z,1012.43
2019-06-10T09:09:03.570Z,1012.43
2019-06-10T09:10:03.377Z,1012.44
2019-06-10T09:11:02.830Z,1012.44
2019-06-10T09:12:04.702Z,1012.44
2019-06-10T09:13:03.138Z,1012.44
2019-06-10T09:14:02.927Z,1012.44
2019-06-10T09:15:04.136Z,1012.44
2019-06-10T09:16:19.077Z,1012.44
2019-06-10T09:17:03.843Z,1012.44
2019-06-10T09:18:02.988Z,1012.38
2019-06-10T09:19:02.636Z,1012.38
2019-06-10T09:20:03.277Z,1012.38
2019-06-10T09:21:02.691Z,1012.38
2019-06-10T09:22:04.195Z,1012.29
2019-06-10T09:23:25.342Z,1012.29
2019-06-10T09:24:04.363Z,1012.29
2019-06-10T09:25:03.280Z,1012.29
2019-06-10T09:26:04.119Z,1012.24
2019-06-10T09:27:03.329Z,1012.24
2019-06-10T09:28:02.748Z,1012.24
2019-06-10T09:29:03.331Z,1012.24
2019-06-10T09:30:03.360Z,1012.26
2019-06-10T09:31:05.619Z,1012.26
2019-06-10T09:32:02.499Z,1012.26
2019-06-10T09:33:05.130Z,1012.26
2019-06-10T09:34:04.403Z,1012.22
2019-06-10T09:35:04.208Z,1012.22
2019-06-10T09:36:04.147Z,1012.22
2019-06-10T09:37:04.383Z,1012.09
2019-06-10T09:38:04.104Z,1012.09
2019-06-10T09:39:04.412Z,1012.09
2019-06-10T09:40:03.842Z,1012.09
2019-06-10T09:41:06.639Z,1011.97
2019-06-10T09:42:06.964Z,1011.97
2019-06-10T09:43:02.827Z,1011.97
2019-06-10T09:44:03.761Z,1011.97
2019-06-10T09:45:02.962Z,1011.96
2019-06-10T09:46:04.126Z,1011.96
2019-06-10T09:47:03.887Z,1011.96
2019-06-10T09:48:04.351Z,1011.96
2019-06-10T09:49:02.479Z,1012.06
2019-06-10T09:50:03.637Z,1012.06
2019-06-10T09:51:02.945Z,1012.06
2019-06-10T09:52:03.898Z,1012.06
2019-06-10T09:53:04.400Z,1012.09
2019-06-10T09:54:07.163Z,1012.09
2019-06-10T09:55:03.512Z,1012.09
2019-06-10T09:56:04.746Z,1012.09
2019-06-10T09:57:03.516Z,1012.13
2019-06-10T09:58:03.676Z,1012.13
2019-06-10T09:59:04.172Z,1012.13
2019-06-10T10:00:04.736Z,1012.13
2019-06-10T10:01:04.819Z,1012.1
2019-06-10T10:02:07.416Z,1012.1
2019-06-10T10:03:03.810Z,1012.1
2019-06-10T10:04:02.552Z,1012.1
2019-06-10T10:05:02.983Z,1011.94
2019-06-10T10:06:16.026Z,1011.94
2019-06-10T10:07:03.469Z,1011.94
2019-06-10T10:08:02.433Z,1011.94
2019-06-10T10:09:04.408Z,1011.81
2019-06-10T10:10:05.715Z,1011.81
2019-06-10T10:11:02.189Z,1011.81
2019-06-10T10:12:03.344Z,1011.81
2019-06-10T10:13:03.080Z,1011.87
2019-06-10T10:14:12.382Z,1011.87
2019-06-10T10:15:30.809Z,1011.87
2019-06-10T10:16:03.054Z,1011.87
2019-06-10T10:17:05.308Z,1011.99
2019-06-10T10:18:02.804Z,1011.99
2019-06-10T10:19:05.842Z,1011.99
2019-06-10T10:20:03.704Z,1011.99
2019-06-10T10:21:04.319Z,1011.6
2019-06-10T10:22:03.379Z,1011.6
2019-06-10T10:23:03.038Z,1011.6
2019-06-10T10:24:14.786Z,1011.6
2019-06-10T10:25:03.372Z,1011.72
2019-06-10T10:26:03.903Z,1011.72
2019-06-10T10:27:09.268Z,1011.72
2019-06-10T10:28:03.626Z,1011.72
2019-06-10T10:29:03.131Z,1011.8
2019-06-10T10:30:04.250Z,1011.8
2019-06-10T10:31:04.979Z,1011.8
2019-06-10T10:32:02.966Z,1011.8
2019-06-10T10:33:04.116Z,1011.67
2019-06-10T10:34:03.063Z,1011.67
2019-06-10T10:35:04.256Z,1011.67
2019-06-10T10:36:03.342Z,1011.67
2019-06-10T10:37:03.268Z,1011.56
2019-06-10T10:38:04.216Z,1011.56
2019-06-10T10:39:02.921Z,1011.56
2019-06-10T10:40:04.124Z,1011.56
2019-06-10T10:41:05.250Z,1011.52
2019-06-10T10:42:04.231Z,1011.52
2019-06-10T10:43:32.634Z,1011.52
2019-06-10T10:44:03.538Z,1011.52
2019-06-10T10:45:03.091Z,1011.51
2019-06-10T10:46:06.367Z,1011.51
2019-06-10T10:47:04.087Z,1011.51
2019-06-10T10:48:02.837Z,1011.51
2019-06-10T10:49:03.033Z,1011.52
2019-06-10T10:50:03.255Z,1011.52
2019-06-10T10:51:04.187Z,1011.52
2019-06-10T10:52:03.003Z,1011.52
2019-06-10T10:53:02.108Z,1011.54
2019-06-10T10:54:35.940Z,1011.54
2019-06-10T10:55:07.310Z,1011.54
2019-06-10T10:56:02.710Z,1011.54
2019-06-10T10:57:03.408Z,1011.42
2019-06-10T10:58:03.566Z,1011.42
2019-06-10T10:59:02.500Z,1011.42
2019-06-10T11:00:03.575Z,1011.42
2019-06-10T11:01:05.134Z,1011.44
2019-06-10T11:02:02.736Z,1011.44
2019-06-10T11:03:03.531Z,1011.44
2019-06-10T11:04:04.125Z,1011.44
2019-06-10T11:05:01.959Z,1011.47
2019-06-10T11:06:02.301Z,1011.47
2019-06-10T11:07:02.293Z,1011.47
2019-06-10T11:08:04.737Z,1011.47
2019-06-10T11:09:01.672Z,1011.34
2019-06-10T11:10:04.797Z,1011.34
2019-06-10T11:11:06.180Z,1011.34
2019-06-10T11:12:03.771Z,1011.34
2019-06-10T11:13:02.651Z,1011.44
2019-06-10T11:14:03.951Z,1011.44
2019-06-10T11:15:05.451Z,1011.44
2019-06-10T11:16:03.928Z,1011.44
2019-06-10T11:17:03.298Z,1011.07
2019-06-10T11:18:04.282Z,1011.07
2019-06-10T11:19:02.911Z,1011.07
2019-06-10T11:20:04.151Z,1011.03
2019-06-10T11:21:05.589Z,1011.03
2019-06-10T11:22:03.373Z,1011.03
2019-06-10T11:23:03.357Z,1011.03
2019-06-10T11:24:05.189Z,1011.03
2019-06-10T11:25:02.123Z,1011.03
2019-06-10T11:26:02.342Z,1011.03
2019-06-10T11:27:03.573Z,1011.03
2019-06-10T11:28:04.567Z,1011.1
2019-06-10T11:29:03.412Z,1011.1
2019-06-10T11:30:02.765Z,1011.1
2019-06-10T11:31:04.294Z,1011.1
2019-06-10T11:32:03.432Z,1011.17
2019-06-10T11:33:03.770Z,1011.17
2019-06-10T11:34:03.551Z,1011.17
2019-06-10T11:35:04.144Z,1011.17
2019-06-10T11:36:03.268Z,1011.09
2019-06-10T11:37:02.684Z,1011.09
2019-06-10T11:38:03.717Z,1011.09
2019-06-10T11:39:03.194Z,1011.09
2019-06-10T11:40:03.232Z,1011.03
2019-06-10T11:41:02.286Z,1011.03
2019-06-10T11:42:04.233Z,1011.03
2019-06-10T11:43:01.750Z,1011.03
2019-06-10T11:44:01.926Z,1011.02
2019-06-10T11:45:03.267Z,1011.02
2019-06-10T11:46:08.286Z,1011.02
2019-06-10T11:47:03.633Z,1011.02
2019-06-10T11:48:02.767Z,1010.83
2019-06-10T11:49:04.383Z,1010.83
2019-06-10T11:50:03.846Z,1010.83
2019-06-10T11:51:05.079Z,1010.83
2019-06-10T11:52:03.636Z,1010.6
2019-06-10T11:53:04.701Z,1010.6
2019-06-10T11:54:03.824Z,1010.6
2019-06-10T11:55:19.328Z,1010.6
2019-06-10T11:56:02.818Z,1010.57
2019-06-10T11:57:01.985Z,1010.57
2019-06-10T11:58:02.153Z,1010.57
2019-06-10T11:59:13.057Z,1010.57
2019-06-10T12:00:17.415Z,1010.45
2019-06-10T12:01:04.471Z,1010.45
2019-06-10T12:02:06.438Z,1010.45
2019-06-10T12:03:03.889Z,1010.45
2019-06-10T12:04:04.565Z,1010.47
2019-06-10T12:05:04.410Z,1010.47
2019-06-10T12:06:06.028Z,1010.47
2019-06-10T12:07:02.698Z,1010.47
2019-06-10T12:08:03.188Z,1010.39
2019-06-10T12:09:03.348Z,1010.39